Time,TemperatureF,DewpointF,PressureIn,WindDirection,WindDirectionDegrees,WindSpeedMPH,WindSpeedGustMPH,Humidity,HourlyPrecipIn,Conditions,Clouds,dailyrainin,SoftwareType,DateUTC
2013-04-20 00:02:00,74.0,67.0,-100.00,ESE,122,4.0,6.0,79,0.00,,,0.02,,2013-04-20 10:02:00,
2013-04-20 00:12:00,74.0,67.0,-100.00,ESE,122,4.0,6.0,79,0.00,,,0.02,,2013-04-20 10:12:00,
2013-04-20 00:23:00,74.0,67.0,-100.00,ESE,122,4.0,6.0,79,0.00,,,0.02,,2013-04-20 10:23:00,
2013-04-20 00:33:00,74.0,67.0,-100.00,ESE,122,4.0,6.0,79,0.00,,,0.02,,2013-04-20 10:33:00,
2013-04-20 00:41:00,73.0,68.0,-100.00,ESE,113,2.0,7.0,84,0.00,,,0.02,,2013-04-20 10:41:00,
2013-04-20 01:02:00,73.0,68.0,-100.00,ESE,113,2.0,7.0,84,0.00,,,0.02,,2013-04-20 11:02:00,
2013-04-20 01:12:00,73.0,68.0,-100.00,ESE,113,2.0,7.0,84,0.00,,,0.02,,2013-04-20 11:12:00,
2013-04-20 01:23:00,73.0,68.0,-100.00,ESE,113,2.0,7.0,84,0.00,,,0.02,,2013-04-20 11:23:00,
2013-04-20 01:31:00,73.0,68.0,-100.00,ESE,113,2.0,7.0,84,0.00,,,0.02,,2013-04-20 11:31:00,
2013-04-20 01:41:00,72.0,68.0,-100.00,NW,311,2.0,5.0,86,0.00,,,0.02,,2013-04-20 11:41:00,
2013-04-20 02:02:00,72.0,68.0,-100.00,NW,311,2.0,5.0,86,0.00,,,0.02,,2013-04-20 12:02:00,
2013-04-20 02:11:00,72.0,68.0,-100.00,NW,311,2.0,5.0,86,0.00,,,0.02,,2013-04-20 12:11:00,
2013-04-20 02:22:00,72.0,68.0,-100.00,NW,311,2.0,5.0,86,0.00,,,0.02,,2013-04-20 12:22:00,
2013-04-20 02:32:00,72.0,68.0,-100.00,NW,311,2.0,5.0,86,0.00,,,0.02,,2013-04-20 12:32:00,
2013-04-20 02:41:00,72.0,67.0,-100.00,NNW,333,3.0,4.0,83,0.00,,,0.02,,2013-04-20 12:41:00,
2013-04-20 03:02:00,72.0,67.0,-100.00,NNW,333,3.0,4.0,83,0.00,,,0.02,,2013-04-20 13:02:00,
2013-04-20 03:11:00,72.0,67.0,-100.00,NNW,333,3.0,4.0,83,0.00,,,0.02,,2013-04-20 13:11:00,
2013-04-20 03:21:00,72.0,67.0,-100.00,NNW,333,3.0,4.0,83,0.00,,,0.02,,2013-04-20 13:21:00,
2013-04-20 03:31:00,72.0,67.0,-100.00,NNW,333,3.0,4.0,83,0.00,,,0.02,,2013-04-20 13:31:00,
2013-04-20 03:41:00,71.0,65.0,-100.00,NW,326,3.0,5.0,82,0.00,,,0.02,,2013-04-20 13:41:00,
2013-04-20 04:02:00,71.0,65.0,-100.00,NW,326,3.0,5.0,82,0.00,,,0.02,,2013-04-20 14:02:00,
2013-04-20 04:11:00,71.0,65.0,-100.00,NW,326,3.0,5.0,82,0.00,,,0.02,,2013-04-20 14:11:00,
2013-04-20 04:21:00,71.0,65.0,-100.00,NW,326,3.0,5.0,82,0.00,,,0.02,,2013-04-20 14:21:00,
2013-04-20 04:31:00,71.0,65.0,-100.00,NW,326,3.0,5.0,82,0.00,,,0.02,,2013-04-20 14:31:00,
2013-04-20 04:41:00,68.0,63.0,-100.00,West,275,1.0,4.0,84,0.00,,,0.02,,2013-04-20 14:41:00,
2013-04-20 05:01:00,68.0,63.0,-100.00,West,275,1.0,4.0,84,0.00,,,0.02,,2013-04-20 15:01:00,
2013-04-20 05:11:00,68.0,63.0,-100.00,West,275,1.0,4.0,84,0.00,,,0.02,,2013-04-20 15:11:00,
2013-04-20 05:21:00,68.0,63.0,-100.00,West,275,1.0,4.0,84,0.00,,,0.02,,2013-04-20 15:21:00,
2013-04-20 05:33:00,68.0,63.0,-100.00,West,275,1.0,4.0,84,0.00,,,0.02,,2013-04-20 15:33:00,
2013-04-20 05:41:00,69.0,65.0,-100.00,North,11,2.0,6.0,86,0.00,,,0.02,,2013-04-20 15:41:00,
2013-04-20 06:03:00,69.0,65.0,-100.00,North,11,2.0,6.0,86,0.00,,,0.02,,2013-04-20 16:03:00,
2013-04-20 06:12:00,69.0,65.0,-100.00,North,11,2.0,6.0,86,0.00,,,0.02,,2013-04-20 16:12:00,
2013-04-20 06:23:00,69.0,65.0,-100.00,North,11,2.0,6.0,86,0.00,,,0.02,,2013-04-20 16:23:00,
2013-04-20 06:32:00,69.0,65.0,-100.00,North,11,2.0,6.0,86,0.00,,,0.02,,2013-04-20 16:32:00,
2013-04-20 06:41:00,70.0,66.0,-100.00,NE,39,3.0,6.0,88,0.00,,,0.02,,2013-04-20 16:41:00,
2013-04-20 07:02:00,70.0,66.0,-100.00,NE,39,3.0,6.0,88,0.00,,,0.02,,2013-04-20 17:02:00,
2013-04-20 07:12:00,70.0,66.0,-100.00,NE,39,3.0,6.0,88,0.00,,,0.02,,2013-04-20 17:12:00,
2013-04-20 07:22:00,70.0,66.0,-100.00,NE,39,3.0,6.0,88,0.00,,,0.02,,2013-04-20 17:22:00,
2013-04-20 07:32:00,70.0,66.0,-100.00,NE,39,3.0,6.0,88,0.00,,,0.02,,2013-04-20 17:32:00,
2013-04-20 07:41:00,74.0,68.0,-100.00,NE,42,4.0,7.0,81,0.00,,,0.02,,2013-04-20 17:41:00,
2013-04-20 08:02:00,74.0,68.0,-100.00,NE,42,4.0,7.0,81,0.00,,,0.02,,2013-04-20 18:02:00,
2013-04-20 08:12:00,74.0,68.0,-100.00,NE,42,4.0,7.0,81,0.00,,,0.02,,2013-04-20 18:12:00,
2013-04-20 08:22:00,74.0,68.0,-100.00,NE,42,4.0,7.0,81,0.00,,,0.02,,2013-04-20 18:22:00,
2013-04-20 08:32:00,74.0,68.0,-100.00,NE,42,4.0,7.0,81,0.00,,,0.02,,2013-04-20 18:32:00,
2013-04-20 08:41:00,78.0,69.0,-100.00,NE,56,3.0,5.0,75,0.00,,,0.02,,2013-04-20 18:41:00,
2013-04-20 09:01:00,78.0,69.0,-100.00,NE,56,3.0,5.0,75,0.00,,,0.02,,2013-04-20 19:01:00,
2013-04-20 09:11:00,78.0,69.0,-100.00,NE,56,3.0,5.0,75,0.00,,,0.02,,2013-04-20 19:11:00,
2013-04-20 09:21:00,78.0,69.0,-100.00,NE,56,3.0,5.0,75,0.00,,,0.02,,2013-04-20 19:21:00,
2013-04-20 09:31:00,78.0,69.0,-100.00,NE,56,3.0,5.0,75,0.00,,,0.02,,2013-04-20 19:31:00,
2013-04-20 09:41:00,81.0,68.0,-100.00,NE,36,3.0,4.0,65,0.00,,,0.02,,2013-04-20 19:41:00,
2013-04-20 10:02:00,81.0,68.0,-100.00,NE,36,3.0,4.0,65,0.00,,,0.02,,2013-04-20 20:02:00,
2013-04-20 10:12:00,81.0,68.0,-100.00,NE,36,3.0,4.0,65,0.00,,,0.02,,2013-04-20 20:12:00,
2013-04-20 10:21:00,81.0,68.0,-100.00,NE,36,3.0,4.0,65,0.00,,,0.02,,2013-04-20 20:21:00,
2013-04-20 10:32:00,81.0,68.0,-100.00,NE,36,3.0,4.0,65,0.00,,,0.02,,2013-04-20 20:32:00,
2013-04-20 10:41:00,83.0,67.0,-100.00,East,85,3.0,5.0,59,0.00,,,0.02,,2013-04-20 20:41:00,
2013-04-20 11:01:00,83.0,67.0,-100.00,East,85,3.0,5.0,59,0.00,,,0.02,,2013-04-20 21:01:00,
2013-04-20 11:12:00,83.0,67.0,-100.00,East,85,3.0,5.0,59,0.00,,,0.02,,2013-04-20 21:12:00,
2013-04-20 11:21:00,83.0,67.0,-100.00,East,85,3.0,5.0,59,0.00,,,0.02,,2013-04-20 21:21:00,
2013-04-20 11:32:00,83.0,67.0,-100.00,East,85,3.0,5.0,59,0.00,,,0.02,,2013-04-20 21:32:00,
2013-04-20 11:41:00,82.0,66.0,-100.00,SSW,196,8.0,12.0,59,0.00,,,0.01,,2013-04-20 21:41:00,
2013-04-20 12:02:00,82.0,66.0,-100.00,SSW,196,8.0,12.0,59,0.00,,,0.01,,2013-04-20 22:02:00,
2013-04-20 12:12:00,82.0,66.0,-100.00,SSW,196,8.0,12.0,59,0.00,,,0.01,,2013-04-20 22:12:00,
2013-04-20 12:22:00,82.0,66.0,-100.00,SSW,196,8.0,12.0,59,0.00,,,0.01,,2013-04-20 22:22:00,
2013-04-20 12:32:00,82.0,66.0,-100.00,SSW,196,8.0,12.0,59,0.00,,,0.01,,2013-04-20 22:32:00,
2013-04-20 12:41:00,82.0,67.0,-100.00,SSW,197,6.0,14.0,60,0.00,,,0.00,,2013-04-20 22:41:00,
2013-04-20 13:02:00,82.0,67.0,-100.00,SSW,197,6.0,14.0,60,0.00,,,0.00,,2013-04-20 23:02:00,
2013-04-20 13:11:00,82.0,67.0,-100.00,SSW,197,6.0,14.0,60,0.00,,,0.00,,2013-04-20 23:11:00,
2013-04-20 13:22:00,82.0,67.0,-100.00,SSW,197,6.0,14.0,60,0.00,,,0.00,,2013-04-20 23:22:00,
2013-04-20 13:32:00,82.0,67.0,-100.00,SSW,197,6.0,14.0,60,0.00,,,0.00,,2013-04-20 23:32:00,
2013-04-20 13:41:00,82.0,66.0,-100.00,South,181,6.0,14.0,59,0.00,,,0.00,,2013-04-20 23:41:00,
2013-04-20 14:01:00,82.0,66.0,-100.00,South,181,6.0,14.0,59,0.00,,,0.00,,2013-04-21 00:01:00,
2013-04-20 14:11:00,82.0,66.0,-100.00,South,181,6.0,14.0,59,0.00,,,0.00,,2013-04-21 00:11:00,
2013-04-20 14:21:00,82.0,66.0,-100.00,South,181,6.0,14.0,59,0.00,,,0.00,,2013-04-21 00:21:00,
2013-04-20 14:32:00,82.0,66.0,-100.00,South,181,6.0,14.0,59,0.00,,,0.00,,2013-04-21 00:32:00,
2013-04-20 14:41:00,82.0,70.0,-100.00,SSW,194,6.0,13.0,67,0.00,,,0.00,,2013-04-21 00:41:00,
2013-04-20 15:01:00,82.0,70.0,-100.00,SSW,194,6.0,13.0,67,0.00,,,0.00,,2013-04-21 01:01:00,
2013-04-20 15:11:00,82.0,70.0,-100.00,SSW,194,6.0,13.0,67,0.00,,,0.00,,2013-04-21 01:11:00,
2013-04-20 15:21:00,82.0,70.0,-100.00,SSW,194,6.0,13.0,67,0.00,,,0.00,,2013-04-21 01:21:00,
2013-04-20 15:31:00,82.0,70.0,-100.00,SSW,194,6.0,13.0,67,0.00,,,0.00,,2013-04-21 01:31:00,
2013-04-20 15:41:00,79.0,69.0,-100.00,South,183,6.0,13.0,71,0.00,,,0.00,,2013-04-21 01:41:00,
2013-04-20 16:01:00,79.0,69.0,-100.00,South,183,6.0,13.0,71,0.00,,,0.00,,2013-04-21 02:01:00,
2013-04-20 16:11:00,79.0,69.0,-100.00,South,183,6.0,13.0,71,0.00,,,0.00,,2013-04-21 02:11:00,
2013-04-20 16:21:00,79.0,69.0,-100.00,South,183,6.0,13.0,71,0.00,,,0.00,,2013-04-21 02:21:00,
2013-04-20 16:31:00,79.0,69.0,-100.00,South,183,6.0,13.0,71,0.00,,,0.00,,2013-04-21 02:31:00,
2013-04-20 16:41:00,79.0,68.0,-100.00,SSW,199,6.0,13.0,69,0.00,,,0.00,,2013-04-21 02:41:00,
2013-04-20 17:01:00,79.0,68.0,-100.00,SSW,199,6.0,13.0,69,0.00,,,0.00,,2013-04-21 03:01:00,
2013-04-20 17:11:00,79.0,68.0,-100.00,SSW,199,6.0,13.0,69,0.00,,,0.00,,2013-04-21 03:11:00,
2013-04-20 17:21:00,79.0,68.0,-100.00,SSW,199,6.0,13.0,69,0.00,,,0.00,,2013-04-21 03:21:00,
2013-04-20 17:32:00,79.0,68.0,-100.00,SSW,199,6.0,13.0,69,0.00,,,0.00,,2013-04-21 03:32:00,
2013-04-20 17:41:00,77.0,69.0,-100.00,SSW,197,4.0,11.0,76,0.00,,,0.00,,2013-04-21 03:41:00,
2013-04-20 18:02:00,77.0,69.0,-100.00,SSW,197,4.0,11.0,76,0.00,,,0.00,,2013-04-21 04:02:00,
2013-04-20 18:12:00,77.0,69.0,-100.00,SSW,197,4.0,11.0,76,0.00,,,0.00,,2013-04-21 04:12:00,
2013-04-20 18:22:00,77.0,69.0,-100.00,SSW,197,4.0,11.0,76,0.00,,,0.00,,2013-04-21 04:22:00,
2013-04-20 18:33:00,77.0,69.0,-100.00,SSW,197,4.0,11.0,76,0.00,,,0.00,,2013-04-21 04:33:00,
2013-04-20 18:41:00,76.0,67.0,-100.00,South,180,3.0,8.0,75,0.00,,,0.00,,2013-04-21 04:41:00,
2013-04-20 19:02:00,76.0,67.0,-100.00,South,180,3.0,8.0,75,0.00,,,0.00,,2013-04-21 05:02:00,
2013-04-20 19:12:00,76.0,67.0,-100.00,South,180,3.0,8.0,75,0.00,,,0.00,,2013-04-21 05:12:00,
2013-04-20 19:22:00,76.0,67.0,-100.00,South,180,3.0,8.0,75,0.00,,,0.00,,2013-04-21 05:22:00,
2013-04-20 19:32:00,76.0,67.0,-100.00,South,180,3.0,8.0,75,0.00,,,0.00,,2013-04-21 05:32:00,
2013-04-20 19:41:00,74.0,66.0,-100.00,SSW,200,3.0,6.0,77,0.00,,,0.00,,2013-04-21 05:41:00,
2013-04-20 20:01:00,74.0,66.0,-100.00,SSW,200,3.0,6.0,77,0.00,,,0.00,,2013-04-21 06:01:00,
2013-04-20 20:12:00,74.0,66.0,-100.00,SSW,200,3.0,6.0,77,0.00,,,0.00,,2013-04-21 06:12:00,
2013-04-20 20:21:00,74.0,66.0,-100.00,SSW,200,3.0,6.0,77,0.00,,,0.00,,2013-04-21 06:21:00,
2013-04-20 20:32:00,74.0,66.0,-100.00,SSW,200,3.0,6.0,77,0.00,,,0.00,,2013-04-21 06:32:00,
2013-04-20 20:41:00,73.0,66.0,-100.00,SSE,168,2.0,4.0,80,0.00,,,0.00,,2013-04-21 06:41:00,
2013-04-20 21:01:00,73.0,66.0,-100.00,SSE,168,2.0,4.0,80,0.00,,,0.00,,2013-04-21 07:01:00,
2013-04-20 21:11:00,73.0,66.0,-100.00,SSE,168,2.0,4.0,80,0.00,,,0.00,,2013-04-21 07:11:00,
2013-04-20 21:21:00,73.0,66.0,-100.00,SSE,168,2.0,4.0,80,0.00,,,0.00,,2013-04-21 07:21:00,
2013-04-20 21:31:00,73.0,66.0,-100.00,SSE,168,2.0,4.0,80,0.00,,,0.00,,2013-04-21 07:31:00,
2013-04-20 21:41:00,72.0,67.0,-100.00,SW,227,2.0,3.0,83,0.00,,,0.00,,2013-04-21 07:41:00,
2013-04-20 22:01:00,72.0,67.0,-100.00,SW,227,2.0,3.0,83,0.00,,,0.00,,2013-04-21 08:01:00,
2013-04-20 22:12:00,72.0,67.0,-100.00,SW,227,2.0,3.0,83,0.00,,,0.00,,2013-04-21 08:12:00,
2013-04-20 22:21:00,72.0,67.0,-100.00,SW,227,2.0,3.0,83,0.00,,,0.00,,2013-04-21 08:21:00,
2013-04-20 22:32:00,72.0,67.0,-100.00,SW,227,2.0,3.0,83,0.00,,,0.00,,2013-04-21 08:32:00,
2013-04-20 22:41:00,72.0,67.0,-100.00,NNW,333,1.0,2.0,85,0.00,,,0.00,,2013-04-21 08:41:00,
2013-04-20 23:01:00,72.0,67.0,-100.00,NNW,333,1.0,2.0,85,0.00,,,0.00,,2013-04-21 09:01:00,
2013-04-20 23:11:00,72.0,67.0,-100.00,NNW,333,1.0,2.0,85,0.00,,,0.00,,2013-04-21 09:11:00,
2013-04-20 23:21:00,72.0,67.0,-100.00,NNW,333,1.0,2.0,85,0.00,,,0.00,,2013-04-21 09:21:00,
2013-04-20 23:32:00,72.0,67.0,-100.00,NNW,333,1.0,2.0,85,0.00,,,0.00,,2013-04-21 09:32:00,
2013-04-20 23:41:00,71.0,66.0,-100.00,NW,310,2.0,5.0,85,0.00,,,0.00,,2013-04-21 09:41:00,